Indianapolis (IND/KIND)

Map

Destinations

Information

Location
Indianapolis, IN
Local Time
01:32 / 1:32 am
GMT Time
06:32 / 6:32 am
Gates
Unassigned
No FAA reported delays
METAR KIND 220554Z 13006KT 9SM SCT034 BKN050 OVC250 13/12 A2990 RMK AO2 SLP124 T01280117 10156 20128 58015
TAF KIND 220520Z 2206/2312 VRB03KT 6SM BR BKN020 FM221000 00000KT 4SM BR OVC008 FM221200 00000KT 1 1/2SM BR OVC005 FM221600 21004KT 4SM BR BKN008 FM221800 21006KT P6SM BKN025 FM230900 22006KT 2SM BR BKN008
  • No charts available